Time;durP1;ratioP1;P1;durP2;ratioP2;P2;SDS_P1;SDS_P2;PMS_P1;PMS_P2;Temp;Humidity;BMP_temperature;BMP_pressure;BME280_temperature;BME280_humidity;BME280_pressure;Samples;Min_cycle;Max_cycle;Signal;HPM_P1;HPM_P2
2022/12/14 00:02:24;;;;;;;7.35;4.53;;;;;;;;;;5022057;28;20213;-85
2022/12/14 00:05:15;;;;;;;;;;;;;;;;;;;;;
2022/12/14 00:08:09;;;;;;;6.97;4.10;;;;;;;;;;4985839;28;20049;-86
2022/12/14 00:14:10;;;;;;;4.90;3.35;;;;;;;;;;4981618;28;20150;-86
2022/12/14 00:17:08;;;;;;;6.40;3.72;;;;;;;;;;4936216;28;20045;-85
2022/12/14 00:19:41;;;;;;;7.55;4.18;;;;;;;;;;5006827;28;20038;-86
2022/12/14 00:22:18;;;;;;;8.30;4.97;;;;;;;;;;4982206;28;20035;-86
2022/12/14 00:25:10;;;;;;;8.10;4.70;;;;;;;;;;4983900;28;20039;-86
2022/12/14 00:28:00;;;;;;;;;;;;;;;;;;;;;
2022/12/14 00:31:19;;;;;;;5.75;3.97;;;;;;;;;;4985315;28;20054;-86
2022/12/14 00:36:54;;;;;;;6.55;4.40;;;;;;;;;;4984469;28;20029;-86
2022/12/14 00:42:54;;;;;;;7.18;4.63;;;;;;;;;;4929749;28;20140;-86
2022/12/14 00:45:25;;;;;;;8.85;4.75;;;;;;;;;;4981102;28;20042;-86
2022/12/14 00:48:34;;;;;;;8.07;5.07;;;;;;;;;;4979636;28;20038;-86
2022/12/14 00:51:15;;;;;;;7.95;4.88;;;;;;;;;;4949026;28;20050;-86
2022/12/14 00:56:41;;;;;;;7.38;4.57;;;;;;;;;;4979384;28;19926;-86
2022/12/14 00:59:38;;;;;;;;;;;;;;;;;;;;;
2022/12/14 01:02:16;;;;;;;7.32;4.35;;;;;;;;;;4993911;28;20101;-86
2022/12/14 01:07:47;;;;;;;6.85;4.47;;;;;;;;;;4985932;28;20031;-86
2022/12/14 01:10:34;;;;;;;7.13;3.80;;;;;;;;;;4984966;28;20098;-86
2022/12/14 01:13:08;;;;;;;5.40;3.35;;;;;;;;;;5022218;28;20464;-86
2022/12/14 01:15:39;;;;;;;5.00;2.95;;;;;;;;;;4982939;28;20042;-86
2022/12/14 01:18:25;;;;;;;6.57;3.90;;;;;;;;;;4966379;28;20034;-86
2022/12/14 01:21:14;;;;;;;6.22;3.80;;;;;;;;;;4983288;28;20432;-86
2022/12/14 01:23:39;;;;;;;8.02;4.53;;;;;;;;;;4994609;28;20030;-85
2022/12/14 01:26:16;;;;;;;8.40;5.25;;;;;;;;;;4991261;28;20045;-85
2022/12/14 01:29:13;;;;;;;7.25;4.68;;;;;;;;;;4990802;28;20102;-86
2022/12/14 01:31:56;;;;;;;;;;;;;;;;;;;;;
2022/12/14 01:35:04;;;;;;;;;;;;;;;;;;;;;
2022/12/14 01:38:03;;;;;;;6.15;3.80;;;;;;;22.38;0.00;54057.72;4978671;28;20041;-87
2022/12/14 01:40:43;;;;;;;6.53;4.65;;;;;;;;;;4971670;28;20049;-86
2022/12/14 01:44:01;;;;;;;9.57;5.33;;;;;;;-145.28;100.00;159927.88;4993543;28;20042;-86
2022/12/14 01:46:39;;;;;;;9.90;5.53;;;;;;;;;;4964405;28;20042;-85
2022/12/14 01:49:16;;;;;;;7.95;4.72;;;;;;;;;;4982097;28;20088;-85
2022/12/14 01:51:55;;;;;;;8.25;4.93;;;;;;;;;;4973780;28;20042;-85
2022/12/14 01:54:36;;;;;;;9.88;6.10;;;;;;;;;;4986125;28;20084;-85
2022/12/14 01:57:32;;;;;;;8.70;5.15;;;;;;;-145.28;0.00;65941.84;4989807;28;20087;-85
2022/12/14 02:00:17;;;;;;;;;;;;;;;;;;;;;
2022/12/14 02:03:10;;;;;;;7.22;4.53;;;;;;;;;;4973626;28;20044;-85
2022/12/14 02:05:45;;;;;;;7.35;4.55;;;;;;;;;;4998789;28;20095;-85
2022/12/14 02:08:49;;;;;;;6.03;4.07;;;;;;;;;;4986791;28;20137;-85
2022/12/14 02:11:37;;;;;;;11.30;5.60;;;;;;;;;;4989566;28;20049;-86
2022/12/14 02:14:16;;;;;;;10.68;6.30;;;;;;;;;;4982622;28;20033;-85
2022/12/14 02:16:57;;;;;;;8.88;5.18;;;;;;;;;;4984155;28;20491;-85
2022/12/14 02:19:25;;;;;;;;;;;;;;;;;;4982171;28;20050;-84
2022/12/14 02:22:09;;;;;;;9.95;6.40;;;;;;;;;;4971508;28;19917;-86
2022/12/14 02:25:08;;;;;;;;;;;;;;;;;;;;;
2022/12/14 02:27:39;;;;;;;10.65;5.95;;;;;;;;;;5001971;28;20566;-85
2022/12/14 02:30:12;;;;;;;;;;;;;;;;;;4972407;28;20042;-86
2022/12/14 02:33:01;;;;;;;9.48;5.80;;;;;;;;;;4971692;28;19981;-86
2022/12/14 02:38:47;;;;;;;9.25;5.65;;;;;;;;;;4960020;28;20038;-85
2022/12/14 02:44:56;;;;;;;;;;;;;;;;;;;;;
2022/12/14 02:47:55;;;;;;;;;;;;;;;;;;;;;
2022/12/14 02:50:37;;;;;;;10.10;5.80;;;;;;;;;;4975029;28;20038;-85
2022/12/14 02:56:13;;;;;;;10.35;6.10;;;;;;;;;;4991767;28;20763;-84
2022/12/14 02:58:49;;;;;;;11.02;6.30;;;;;;;;;;4971283;28;20132;-84
2022/12/14 03:01:25;;;;;;;10.02;6.22;;;;;;;;;;4988960;28;20038;-84
2022/12/14 03:03:52;;;;;;;11.82;6.72;;;;;;;;;;4964132;28;20573;-84
2022/12/14 03:06:43;;;;;;;10.73;6.85;;;;;;;;;;4965689;28;20116;-84
2022/12/14 03:09:27;;;;;;;9.43;6.13;;;;;;;;;;4984764;28;20038;-83
2022/12/14 03:12:06;;;;;;;11.13;6.75;;;;;;;;;;4977044;28;20054;-84
2022/12/14 03:15:02;;;;;;;10.82;6.72;;;;;;;22.39;100.00;65942.16;4972163;28;20577;-84
2022/12/14 03:17:39;;;;;;;9.68;6.50;;;;;;;;;;4989512;28;20466;-84
2022/12/14 03:20:21;;;;;;;10.23;6.80;;;;;;;;;;4979334;28;20091;-85
2022/12/14 03:22:51;;;;;;;9.77;6.25;;;;;;;;;;4978972;28;20038;-85
2022/12/14 03:25:58;;;;;;;;;;;;;;;;;;;;;
2022/12/14 03:28:43;;;;;;;;;;;;;;;;;;;;;
2022/12/14 03:31:23;;;;;;;10.82;6.43;;;;;;;;;;4992928;28;20125;-84
2022/12/14 03:33:52;;;;;;;11.10;6.68;;;;;;;;;;4990494;28;20503;-85
2022/12/14 03:36:42;;;;;;;12.32;6.60;;;;;;;;;;4994645;28;20050;-85
2022/12/14 03:39:30;;;;;;;10.05;6.32;;;;;;;-145.28;0.00;159934.00;4988529;28;20030;-84
2022/12/14 03:42:03;;;;;;;10.68;6.38;;;;;;;;;;4993476;28;20454;-86
2022/12/14 03:44:53;;;;;;;10.45;6.40;;;;;;;;;;4977165;28;20053;-85
2022/12/14 03:48:03;;;;;;;11.02;6.70;;;;;;;;;;4977108;28;20046;-85
2022/12/14 03:50:54;;;;;;;10.18;6.65;;;;;;;;;;4923420;29;20043;-84
2022/12/14 03:53:22;;;;;;;9.90;6.53;;;;;;;;;;4936520;28;20051;-84
2022/12/14 03:56:01;;;;;;;10.65;7.07;;;;;;;;;;4972976;28;20505;-85
2022/12/14 03:58:26;;;;;;;10.43;6.47;;;;;;;;;;4988621;28;20139;-85
2022/12/14 04:01:15;;;;;;;11.48;7.65;;;;;;;;;;4994099;28;20046;-85
2022/12/14 04:04:07;;;;;;;11.18;7.03;;;;;;;;;;4995188;28;20035;-85
2022/12/14 04:07:22;;;;;;;10.68;7.00;;;;;;;;;;4972589;28;20065;-85
2022/12/14 04:18:58;;;;;;;14.00;8.57;;;;;;;;;;4981780;28;20123;-84
2022/12/14 04:21:53;;;;;;;12.05;8.00;;;;;;;;;;4996358;28;20125;-85
2022/12/14 04:27:47;;;;;;;14.07;8.20;;;;;;;;;;4994641;28;20067;-85
2022/12/14 04:30:13;;;;;;;13.32;8.10;;;;;;;;;;5012644;28;20045;-85
2022/12/14 04:32:47;;;;;;;12.82;8.15;;;;;;;;;;4989507;28;20106;-84
2022/12/14 04:35:25;;;;;;;11.80;8.00;;;;;;;;;;5019252;28;20569;-86
2022/12/14 04:37:56;;;;;;;11.60;7.50;;;;;;;;;;4983848;28;20115;-86
2022/12/14 04:40:53;;;;;;;11.95;7.72;;;;;;;22.54;nan;159763.88;4965712;28;20049;-85
2022/12/14 04:43:31;;;;;;;11.95;7.50;;;;;;;;;;4979908;28;20050;-84
2022/12/14 04:46:25;;;;;;;10.57;6.93;;;;;;;;;;5002157;28;20038;-84
2022/12/14 04:49:15;;;;;;;9.88;6.10;;;;;;;;;;4979847;28;20042;-85
2022/12/14 04:51:51;;;;;;;11.02;6.68;;;;;;;;;;4999893;28;20075;-86
2022/12/14 04:57:53;;;;;;;10.57;6.10;;;;;;;;;;4987490;28;20503;-85
2022/12/14 05:01:01;;;;;;;9.85;6.22;;;;;;;;;;4972296;28;20075;-86
2022/12/14 05:06:53;;;;;;;11.90;7.70;;;;;;;;;;4969433;28;20041;-85
2022/12/14 05:10:03;;;;;;;;;;;;;;;;;;;;;
2022/12/14 05:12:48;;;;;;;;;;;;;;;;;;;;;
2022/12/14 05:15:23;;;;;;;13.98;8.65;;;;;;;;;;4983122;28;20065;-86
2022/12/14 05:17:58;;;;;;;14.05;8.68;;;;;;;;;;4979554;28;20030;-85
2022/12/14 05:20:32;;;;;;;15.38;9.38;;;;;;;-145.28;nan;65943.03;4988496;28;20065;-86
2022/12/14 05:23:20;;;;;;;14.57;8.82;;;;;;;;;;4987177;28;20038;-86
2022/12/14 05:26:19;;;;;;;14.95;8.63;;;;;;;;;;4991643;28;20403;-86
2022/12/14 05:29:01;;;;;;;12.30;7.90;;;;;;;;;;4986052;28;20723;-86
2022/12/14 05:31:40;;;;;;;14.10;8.48;;;;;;;;;;4974904;28;20078;-86
2022/12/14 05:34:40;;;;;;;13.30;8.77;;;;;;;;;;4989491;28;20034;-85
2022/12/14 05:40:02;;;;;;;16.73;9.95;;;;;;;;;;5036069;28;20041;-85
2022/12/14 05:42:52;;;;;;;12.88;7.72;;;;;;;;;;5038670;28;20036;-85
2022/12/14 05:45:29;;;;;;;11.95;8.18;;;;;;;;;;5056258;28;20052;-85
2022/12/14 05:48:02;;;;;;;15.75;10.00;;;;;;;;;;5031570;28;20088;-85
2022/12/14 05:50:36;;;;;;;14.25;9.10;;;;;;;;;;4991115;28;20050;-85
2022/12/14 05:53:12;;;;;;;14.15;9.07;;;;;;;;;;4970193;28;20064;-84
2022/12/14 05:55:38;;;;;;;17.25;10.30;;;;;;;;;;4995348;28;20044;-85
2022/12/14 05:58:23;;;;;;;17.85;10.48;;;;;;;;;;4998917;28;20038;-84
2022/12/14 06:00:52;;;;;;;19.98;11.82;;;;;;;;;;5009362;28;20038;-85
2022/12/14 06:03:55;;;;;;;19.63;11.57;;;;;;;;;;4994238;28;20046;-86
2022/12/14 06:06:29;;;;;;;19.73;11.82;;;;;;;;;;4987360;28;20556;-85
2022/12/14 06:09:04;;;;;;;18.95;11.57;;;;;;;;;;4986240;28;20035;-85
2022/12/14 06:18:18;;;;;;;;;;;;;;;;;;;;;
2022/12/14 06:20:44;;;;;;;18.55;11.15;;;;;;;;;;5000057;28;20537;-85
2022/12/14 06:23:13;;;;;;;16.60;10.55;;;;;;;;;;4980434;28;20483;-85
2022/12/14 06:25:39;;;;;;;17.73;11.68;;;;;;;;;;4989726;28;20034;-85
2022/12/14 06:28:06;;;;;;;15.95;9.95;;;;;;;;;;4981569;28;20042;-86
2022/12/14 06:30:31;;;;;;;16.08;10.77;;;;;;;;;;5074982;28;20481;-86
2022/12/14 06:32:57;;;;;;;22.23;14.23;;;;;;;;;;4989876;28;20070;-82
2022/12/14 06:35:22;;;;;;;20.43;13.67;;;;;;;;;;4986298;28;20053;-83
2022/12/14 06:37:47;;;;;;;23.13;14.73;;;;;;;;;;4985827;28;20346;-83
2022/12/14 06:40:12;;;;;;;24.17;14.70;;;;;;;;;;4988067;28;20044;-83
2022/12/14 06:42:37;;;;;;;20.83;12.77;;;;;;;;;;4988713;28;20146;-83
2022/12/14 06:45:03;;;;;;;20.47;13.70;;;;;;;;;;4992244;28;20793;-85
2022/12/14 06:47:28;;;;;;;21.65;13.77;;;;;;;;;;4991244;28;20303;-84
2022/12/14 06:49:53;;;;;;;24.00;14.20;;;;;;;;;;4991594;28;20062;-84
2022/12/14 06:52:18;;;;;;;21.80;13.33;;;;;;;;;;4989604;28;20047;-84
2022/12/14 06:54:45;;;;;;;22.67;13.70;;;;;;;;;;4991601;28;20081;-83
2022/12/14 06:57:10;;;;;;;21.45;13.82;;;;;;;;;;4989612;28;20045;-83
2022/12/14 06:59:35;;;;;;;20.83;13.27;;;;;;;;;;4990300;28;20110;-84
2022/12/14 07:02:01;;;;;;;19.20;12.90;;;;;;;;;;4989282;28;20041;-83
2022/12/14 07:04:26;;;;;;;22.92;13.20;;;;;;;;;;4989066;28;20031;-83
2022/12/14 07:06:51;;;;;;;20.88;13.55;;;;;;;;;;4989916;28;20038;-84
2022/12/14 07:09:17;;;;;;;25.67;14.33;;;;;;;;;;5000565;28;20058;-83
2022/12/14 07:11:42;;;;;;;23.90;14.07;;;;;;;;;;4996019;28;20049;-84
2022/12/14 07:14:11;;;;;;;21.75;13.77;;;;;;;;;;4993188;28;20041;-84
2022/12/14 07:16:36;;;;;;;23.50;14.52;;;;;;;;;;4985438;28;20452;-84
2022/12/14 07:19:02;;;;;;;22.93;13.90;;;;;;;;;;4972446;28;20027;-84
2022/12/14 07:21:28;;;;;;;24.75;14.68;;;;;;;;;;4972671;28;20559;-83
2022/12/14 07:23:53;;;;;;;26.15;15.27;;;;;;;;;;4982499;28;20068;-83
2022/12/14 07:26:18;;;;;;;22.13;13.90;;;;;;;;;;4990768;28;20043;-83
2022/12/14 07:28:44;;;;;;;23.65;14.52;;;;;;;;;;4990174;28;20282;-83
2022/12/14 07:31:11;;;;;;;20.73;13.23;;;;;;;;;;4988841;28;20089;-82
2022/12/14 07:33:37;;;;;;;23.23;13.85;;;;;;;;;;5031748;28;20032;-83
2022/12/14 07:36:02;;;;;;;23.35;14.40;;;;;;;;;;5073036;28;20041;-83
2022/12/14 07:38:27;;;;;;;27.23;15.87;;;;;;;;;;5018124;28;20408;-83
2022/12/14 07:40:52;;;;;;;22.37;14.00;;;;;;;;;;5010925;28;20281;-83
2022/12/14 07:43:17;;;;;;;22.70;13.70;;;;;;;;;;4988319;28;20042;-83
2022/12/14 07:45:43;;;;;;;24.30;14.67;;;;;;;;;;4989908;28;20030;-83
2022/12/14 07:48:09;;;;;;;22.83;13.50;;;;;;;;;;4990034;28;20406;-83
2022/12/14 07:50:34;;;;;;;21.13;14.07;;;;;;;;;;4992283;28;20064;-83
2022/12/14 07:52:59;;;;;;;20.57;13.57;;;;;;;;;;4990685;28;20718;-83
2022/12/14 07:55:24;;;;;;;21.90;13.83;;;;;;;;;;4990034;28;20130;-83
2022/12/14 07:57:49;;;;;;;22.80;14.27;;;;;;;;;;4989506;28;20565;-83
2022/12/14 08:00:15;;;;;;;23.40;14.88;;;;;;;;;;4987353;28;20041;-83
2022/12/14 08:02:40;;;;;;;19.48;12.68;;;;;;;;;;4989094;28;20050;-83
2022/12/14 08:05:06;;;;;;;20.27;13.07;;;;;;;;;;4987151;28;20557;-83
2022/12/14 08:07:31;;;;;;;20.02;12.90;;;;;;;;;;4988101;28;20351;-83
2022/12/14 08:09:56;;;;;;;17.07;11.37;;;;;;;;;;4981718;28;20039;-83
2022/12/14 08:12:22;;;;;;;17.58;10.55;;;;;;;;;;4983234;28;20038;-83
2022/12/14 08:14:47;;;;;;;16.05;9.98;;;;;;;;;;4990128;28;20098;-83
2022/12/14 08:17:13;;;;;;;16.17;9.95;;;;;;;;;;4988808;28;20045;-83
2022/12/14 08:19:38;;;;;;;22.00;13.13;;;;;;;;;;4990411;28;20058;-83
2022/12/14 08:22:03;;;;;;;21.70;12.97;;;;;;;;;;4991783;28;20039;-83
2022/12/14 08:24:28;;;;;;;19.92;12.55;;;;;;;;;;4987528;28;20443;-83
2022/12/14 08:26:54;;;;;;;27.47;15.47;;;;;;;;;;4988347;28;20069;-83
2022/12/14 08:29:21;;;;;;;30.80;16.30;;;;;;;22.39;100.00;120117.63;4989926;28;20050;-84
2022/12/14 08:31:46;;;;;;;29.02;17.33;;;;;;;;;;4987277;28;20300;-84
2022/12/14 08:34:11;;;;;;;32.45;18.63;;;;;;;;;;4988184;28;20035;-84
2022/12/14 08:36:36;;;;;;;27.67;17.17;;;;;;;;;;4988596;28;20046;-84
2022/12/14 08:39:04;;;;;;;27.63;16.83;;;;;;;;;;4989036;28;20328;-83
2022/12/14 08:41:29;;;;;;;24.30;15.38;;;;;;;;;;4990694;28;20034;-83
2022/12/14 08:43:55;;;;;;;20.17;13.57;;;;;;;;;;4984156;28;20043;-84
2022/12/14 08:46:21;;;;;;;23.88;14.48;;;;;;;;;;4988668;28;20285;-84
2022/12/14 08:48:46;;;;;;;25.48;15.35;;;;;;;;;;4989923;28;20145;-83
2022/12/14 08:51:12;;;;;;;22.35;14.45;;;;;;;;;;4988124;28;20054;-83
2022/12/14 08:53:37;;;;;;;26.42;15.68;;;;;;;;;;4989855;28;20121;-83
2022/12/14 08:56:03;;;;;;;26.13;15.67;;;;;;;;;;4990339;28;20445;-84
2022/12/14 08:58:28;;;;;;;28.13;16.75;;;;;;;;;;4988972;28;20276;-83
2022/12/14 09:01:02;;;;;;;27.83;16.30;;;;;;;;;;4989180;28;20094;-83
2022/12/14 09:03:31;;;;;;;26.25;15.23;;;;;;;;;;4990600;28;20053;-84
2022/12/14 09:06:06;;;;;;;23.85;14.68;;;;;;;;;;4989794;28;20117;-84
2022/12/14 09:08:31;;;;;;;24.88;15.68;;;;;;;;;;4989977;28;20061;-82
2022/12/14 09:10:57;;;;;;;29.73;17.67;;;;;;;;;;4996405;28;20043;-84
2022/12/14 09:13:22;;;;;;;27.40;17.75;;;;;;;22.38;100.00;120240.28;5028782;28;20046;-84
2022/12/14 09:15:54;;;;;;;28.42;17.58;;;;;;;;;;4990151;28;20043;-84
2022/12/14 09:18:20;;;;;;;26.27;16.88;;;;;;;;;;4988913;28;20045;-84
2022/12/14 09:20:45;;;;;;;28.33;17.02;;;;;;;;;;4991121;28;20034;-84
2022/12/14 09:23:10;;;;;;;28.00;17.77;;;;;;;;;;5015166;28;20128;-84
2022/12/14 09:25:35;;;;;;;29.17;19.00;;;;;;;;;;5011347;28;20354;-84
2022/12/14 09:28:00;;;;;;;29.80;18.43;;;;;;;;;;5002021;28;20038;-83
2022/12/14 09:30:26;;;;;;;27.70;17.10;;;;;;;;;;5002004;28;20037;-84
2022/12/14 09:32:51;;;;;;;25.67;17.05;;;;;;;;;;4989142;28;20597;-83
2022/12/14 09:35:16;;;;;;;29.10;18.10;;;;;;;;;;4989165;28;20061;-83
2022/12/14 09:37:41;;;;;;;29.73;17.75;;;;;;;;;;5016976;28;20407;-83
2022/12/14 09:40:09;;;;;;;29.63;17.77;;;;;;;;;;5085793;28;20107;-84
2022/12/14 09:42:46;;;;;;;24.02;14.55;;;;;;;;;;5001967;28;20281;-84
2022/12/14 09:45:26;;;;;;;25.50;15.52;;;;;;;;;;5004879;28;20042;-83
2022/12/14 09:47:57;;;;;;;22.50;14.95;;;;;;;;;;5004455;28;20435;-84
2022/12/14 09:50:23;;;;;;;24.83;15.30;;;;;;;;;;5003597;28;20050;-84
2022/12/14 09:52:51;;;;;;;25.75;16.25;;;;;;;;;;5005117;28;20064;-83
2022/12/14 09:55:19;;;;;;;26.38;15.38;;;;;;;;;;5006512;28;20042;-84
2022/12/14 09:57:46;;;;;;;28.90;17.60;;;;;;;;;;5003835;28;20133;-84
2022/12/14 10:00:19;;;;;;;30.02;17.75;;;;;;;;;;5004480;28;20038;-83
2022/12/14 10:02:50;;;;;;;27.15;16.95;;;;;;;;;;5005335;28;20038;-85
2022/12/14 10:05:23;;;;;;;25.20;15.32;;;;;;;;;;5007174;28;20038;-84
2022/12/14 10:08:12;;;;;;;23.90;15.35;;;;;;;;;;5006333;28;20038;-84
2022/12/14 10:10:52;;;;;;;25.42;16.58;;;;;;;;;;5003451;28;20042;-85
2022/12/14 10:13:24;;;;;;;29.45;16.70;;;;;;;;;;5007427;28;20362;-84
2022/12/14 10:15:49;;;;;;;27.55;17.05;;;;;;;;;;5004328;28;20046;-85
2022/12/14 10:18:20;;;;;;;27.60;16.57;;;;;;;;;;5009413;28;20039;-86
2022/12/14 10:20:47;;;;;;;;;;;;;;;;;;5008450;28;20060;-85
2022/12/14 10:23:19;;;;;;;29.50;16.02;;;;;;;;;;5006670;28;20285;-85
2022/12/14 10:25:45;;;;;;;26.67;16.48;;;;;;;;;;5023129;28;20031;-85
2022/12/14 10:28:13;;;;;;;24.52;15.65;;;;;;;;;;5005437;28;20303;-85
2022/12/14 10:30:40;;;;;;;26.77;16.40;;;;;;;;;;5058169;28;20032;-86
2022/12/14 10:33:23;;;;;;;26.50;16.20;;;;;;;;;;5091234;28;20565;-86
2022/12/14 10:35:50;;;;;;;25.65;16.73;;;;;;;;;;5090945;28;20060;-85
2022/12/14 10:38:25;;;;;;;26.63;16.52;;;;;;;;;;5089239;28;20498;-86
2022/12/14 10:40:52;;;;;;;27.20;16.35;;;;;;;;;;5048335;28;20050;-85
2022/12/14 10:43:20;;;;;;;25.30;15.52;;;;;;;;;;5032558;28;20028;-85
2022/12/14 10:45:49;;;;;;;26.25;15.93;;;;;;;;;;5046215;28;20111;-85
2022/12/14 10:48:20;;;;;;;23.40;15.27;;;;;;;;;;4993324;28;20034;-85
2022/12/14 10:50:45;;;;;;;;;;;;;;;;;;4989679;28;20047;-85
2022/12/14 10:53:14;;;;;;;26.33;15.73;;;;;;;;;;4992045;28;19920;-85
2022/12/14 10:55:40;;;;;;;26.45;16.20;;;;;;;;;;4992481;28;20503;-85
2022/12/14 10:58:05;;;;;;;24.27;14.63;;;;;;;;;;5008287;28;20141;-85
2022/12/14 11:00:30;;;;;;;24.58;14.98;;;;;;;;;;4986333;28;20077;-84
2022/12/14 11:02:56;;;;;;;24.23;14.40;;;;;;;;;;5010085;28;20113;-85
2022/12/14 11:05:49;;;;;;;23.50;14.88;;;;;;;;;;4992643;28;20046;-85
2022/12/14 11:08:33;;;;;;;20.60;13.25;;;;;;;;;;4993403;28;20111;-85
2022/12/14 11:11:12;;;;;;;22.38;13.75;;;;;;;;;;4992920;28;20038;-85
2022/12/14 11:13:38;;;;;;;24.52;15.07;;;;;;;;;;4991995;28;20094;-86
2022/12/14 11:16:27;;;;;;;25.27;15.37;;;;;;;;;;4991389;28;20091;-85
2022/12/14 11:18:59;;;;;;;22.15;14.50;;;;;;;;;;4993739;28;20043;-85
2022/12/14 11:21:29;;;;;;;25.83;15.02;;;;;;;;;;4995664;28;20653;-86
2022/12/14 11:23:54;;;;;;;22.65;14.85;;;;;;;;;;5003164;28;20155;-85
2022/12/14 11:26:24;;;;;;;23.13;14.87;;;;;;;;;;4987288;28;20136;-85
2022/12/14 11:28:54;;;;;;;20.07;13.03;;;;;;;;;;4992185;28;20286;-85
2022/12/14 11:31:21;;;;;;;24.88;14.95;;;;;;;;;;5025638;28;20045;-85
2022/12/14 11:33:48;;;;;;;26.65;16.23;;;;;;;;;;4991658;28;20523;-86
2022/12/14 11:36:32;;;;;;;22.60;14.23;;;;;;;;;;4993715;28;20038;-86
2022/12/14 11:39:02;;;;;;;26.17;15.20;;;;;;;;;;4993603;28;20034;-85
2022/12/14 11:41:31;;;;;;;24.40;15.80;;;;;;;;;;4995320;28;20050;-85
2022/12/14 11:44:04;;;;;;;23.08;14.63;;;;;;;;;;4993910;28;20038;-85
2022/12/14 11:46:48;;;;;;;25.25;15.27;;;;;;;;;;5040086;28;20094;-85
2022/12/14 11:49:19;;;;;;;21.52;14.57;;;;;;;;;;4991655;28;20034;-85
2022/12/14 11:51:56;;;;;;;23.65;14.80;;;;;;;;;;5005998;28;20126;-86
2022/12/14 11:54:21;;;;;;;22.10;14.23;;;;;;;;;;4991409;28;20041;-85
2022/12/14 11:56:48;;;;;;;22.90;14.33;;;;;;;;;;5008582;28;20052;-85
2022/12/14 11:59:14;;;;;;;20.80;13.55;;;;;;;;;;4986316;28;20544;-85
2022/12/14 12:01:40;;;;;;;22.65;13.43;;;;;;;;;;5022072;28;20035;-85
2022/12/14 12:04:10;;;;;;;20.33;12.98;;;;;;;;;;5037185;28;20649;-85
2022/12/14 12:06:35;;;;;;;27.98;16.95;;;;;;;;;;4989666;28;20076;-84
2022/12/14 12:09:01;;;;;;;25.03;15.07;;;;;;;;;;4990191;28;20715;-84
2022/12/14 12:11:30;;;;;;;22.60;14.38;;;;;;;;;;5007247;28;20046;-84
2022/12/14 12:14:00;;;;;;;21.73;14.00;;;;;;;;;;5001170;28;20039;-86
2022/12/14 12:16:27;;;;;;;25.20;15.65;;;;;;;;;;4990084;28;20515;-85
2022/12/14 12:18:59;;;;;;;23.95;14.35;;;;;;;;;;4989360;28;20395;-85
2022/12/14 12:21:31;;;;;;;26.58;16.05;;;;;;;;;;4988740;28;20058;-85
2022/12/14 12:24:00;;;;;;;25.33;16.15;;;;;;;;;;4987931;28;20062;-85
2022/12/14 12:26:27;;;;;;;29.25;17.08;;;;;;;;;;4988143;28;20054;-85
2022/12/14 12:29:02;;;;;;;26.48;16.10;;;;;;;;;;4989787;28;20628;-84
2022/12/14 12:31:33;;;;;;;22.55;14.23;;;;;;;;;;4990149;28;20038;-84
2022/12/14 12:34:03;;;;;;;25.25;15.48;;;;;;;;;;4989502;28;20031;-84
2022/12/14 12:36:31;;;;;;;22.58;14.27;;;;;;;;;;4980940;28;20115;-84
2022/12/14 12:39:11;;;;;;;22.92;13.70;;;;;;;;;;4990821;28;20022;-84
2022/12/14 12:41:43;;;;;;;20.48;12.35;;;;;;;;;;4984338;28;20117;-84
2022/12/14 12:44:14;;;;;;;26.75;17.05;;;;;;;;;;4988474;28;20046;-84
2022/12/14 12:46:44;;;;;;;23.48;14.88;;;;;;;;;;4989452;28;20045;-84
2022/12/14 12:49:16;;;;;;;23.27;15.65;;;;;;;;;;4991120;28;20035;-83
2022/12/14 12:51:48;;;;;;;25.67;16.10;;;;;;;;;;4997690;28;20049;-84
2022/12/14 12:54:16;;;;;;;26.63;16.80;;;;;;;;;;4998696;28;20126;-84
2022/12/14 12:56:46;;;;;;;25.25;16.02;;;;;;;;;;4993894;28;20066;-85
2022/12/14 12:59:29;;;;;;;27.77;16.08;;;;;;;;;;4990287;28;20061;-85
2022/12/14 13:01:57;;;;;;;26.05;15.13;;;;;;;;;;4992523;28;20135;-84
2022/12/14 13:04:43;;;;;;;25.25;15.57;;;;;;;;;;4994443;28;20031;-84
2022/12/14 13:07:13;;;;;;;28.15;16.77;;;;;;;;;;4998052;28;20042;-84
2022/12/14 13:09:43;;;;;;;27.92;17.65;;;;;;;-0.63;nan;98522.13;4993299;28;20037;-85
2022/12/14 13:12:20;;;;;;;28.67;15.93;;;;;;;;;;4992609;28;20073;-85
2022/12/14 13:14:46;;;;;;;26.40;16.27;;;;;;;;;;4993848;28;20035;-84
2022/12/14 13:17:36;;;;;;;29.77;16.48;;;;;;;;;;4993263;28;20460;-84
2022/12/14 13:20:03;;;;;;;27.48;16.52;;;;;;;;;;4995806;28;20031;-85
2022/12/14 13:22:30;;;;;;;29.23;16.88;;;;;;;;;;4992887;28;20038;-84
2022/12/14 13:24:56;;;;;;;27.42;16.85;;;;;;;;;;4994222;28;20035;-84
2022/12/14 13:27:44;;;;;;;27.77;17.05;;;;;;;;;;4993498;28;20040;-84
2022/12/14 13:30:23;;;;;;;27.88;17.35;;;;;;;;;;4993195;28;20038;-84
2022/12/14 13:32:48;;;;;;;26.33;15.90;;;;;;;;;;4992816;28;20053;-85
2022/12/14 13:35:32;;;;;;;27.80;16.47;;;;;;;;;;4992188;28;20035;-87
2022/12/14 13:38:07;;;;;;;27.10;16.67;;;;;;;;;;4992604;28;20050;-83
2022/12/14 13:40:38;;;;;;;30.23;17.38;;;;;;;;;;4991593;28;20030;-86
2022/12/14 13:43:04;;;;;;;25.58;15.90;;;;;;;;;;4972221;28;20567;-84
2022/12/14 13:45:33;;;;;;;26.60;16.67;;;;;;;;;;4988141;28;20087;-84
2022/12/14 13:47:59;;;;;;;27.30;17.35;;;;;;;;;;4979589;28;20034;-83
2022/12/14 13:50:27;;;;;;;28.55;16.58;;;;;;;;;;4992097;28;20030;-84
2022/12/14 13:53:01;;;;;;;26.20;16.50;;;;;;;;;;4992147;28;20115;-84
2022/12/14 13:55:37;;;;;;;25.63;15.73;;;;;;;;;;4991791;28;20030;-84
2022/12/14 13:58:13;;;;;;;29.42;16.60;;;;;;;;;;4994363;28;20093;-84
2022/12/14 14:00:44;;;;;;;28.25;16.75;;;;;;;;;;4992034;28;20038;-84
2022/12/14 14:03:28;;;;;;;28.08;17.25;;;;;;;;;;4991262;28;20109;-86
2022/12/14 14:05:59;;;;;;;29.20;16.58;;;;;;;;;;4991372;28;20026;-85
2022/12/14 14:08:31;;;;;;;29.38;16.98;;;;;;;;;;4991869;28;20038;-86
2022/12/14 14:10:56;;;;;;;31.27;17.77;;;;;;;;;;4993797;28;20046;-86
2022/12/14 14:13:27;;;;;;;31.03;18.07;;;;;;;;;;4990828;28;20038;-86
2022/12/14 14:15:54;;;;;;;29.25;17.90;;;;;;;;;;4991557;28;20309;-86
2022/12/14 14:18:21;;;;;;;29.70;18.80;;;;;;;;;;4991859;28;20045;-86
2022/12/14 14:20:48;;;;;;;30.77;18.45;;;;;;;;;;4992307;28;20578;-86
2022/12/14 14:23:14;;;;;;;27.90;16.67;;;;;;;;;;4991150;28;20042;-84
2022/12/14 14:25:45;;;;;;;29.17;16.90;;;;;;;;;;4992299;28;20058;-86
2022/12/14 14:28:11;;;;;;;28.63;17.25;;;;;;;;;;4991235;28;20102;-85
2022/12/14 14:30:40;;;;;;;27.58;16.17;;;;;;;;;;4991416;28;20065;-86
2022/12/14 14:33:24;;;;;;;33.35;18.40;;;;;;;;;;4992873;28;20058;-86
2022/12/14 14:35:49;;;;;;;27.98;16.25;;;;;;;;;;4992373;28;20400;-86
2022/12/14 14:38:29;;;;;;;27.95;16.35;;;;;;;;;;4990709;28;20039;-86
2022/12/14 14:40:59;;;;;;;26.27;16.17;;;;;;;;;;4992431;28;20034;-85
2022/12/14 14:43:39;;;;;;;28.50;16.38;;;;;;;;;;4989976;28;20035;-85
2022/12/14 14:46:05;;;;;;;25.70;16.40;;;;;;;;;;4990573;28;20107;-84
2022/12/14 14:48:30;;;;;;;26.83;16.17;;;;;;;;;;4992653;28;20034;-83
2022/12/14 14:51:15;;;;;;;26.58;15.27;;;;;;;;;;4990549;28;20034;-86
2022/12/14 14:53:40;;;;;;;25.13;15.60;;;;;;;;;;4991743;28;20692;-87
2022/12/14 14:56:14;;;;;;;27.77;17.10;;;;;;;;;;4991134;28;20088;-84
2022/12/14 14:58:40;;;;;;;25.00;15.23;;;;;;;;;;4979516;28;20819;-85
2022/12/14 15:01:26;;;;;;;21.92;13.68;;;;;;;;;;4971200;28;20524;-83
2022/12/14 15:04:03;;;;;;;25.88;14.38;;;;;;;;;;4972559;28;20035;-84
2022/12/14 15:06:29;;;;;;;26.02;15.05;;;;;;;;;;4971154;28;20603;-84
2022/12/14 15:09:04;;;;;;;23.42;14.50;;;;;;;;;;4970655;28;20507;-83
2022/12/14 15:11:33;;;;;;;23.83;13.93;;;;;;;;;;4969549;28;20053;-82
2022/12/14 15:14:10;;;;;;;25.08;14.45;;;;;;;;;;4969553;28;20042;-83
2022/12/14 15:16:43;;;;;;;26.90;14.38;;;;;;;;;;4974397;28;20141;-83
2022/12/14 15:19:32;;;;;;;21.13;13.10;;;;;;;;;;4989509;28;20113;-83
2022/12/14 15:21:59;;;;;;;27.48;13.60;;;;;;;;;;4989005;28;20038;-83
2022/12/14 15:24:25;;;;;;;23.23;14.25;;;;;;;;;;4988403;28;20123;-82
2022/12/14 15:26:50;;;;;;;25.20;15.00;;;;;;;;;;4991179;28;20035;-83
2022/12/14 15:29:19;;;;;;;22.95;13.52;;;;;;;;;;4992962;28;20094;-83
2022/12/14 15:31:44;;;;;;;21.20;13.15;;;;;;;;;;4994734;28;20044;-83
2022/12/14 15:34:15;;;;;;;23.20;13.87;;;;;;;;;;4995451;28;20551;-83
2022/12/14 15:36:41;;;;;;;21.02;12.88;;;;;;;;;;4994852;28;20045;-84
2022/12/14 15:39:25;;;;;;;21.33;12.93;;;;;;;;;;4990674;28;20113;-84
2022/12/14 15:41:50;;;;;;;22.20;12.77;;;;;;;;;;4990630;28;20578;-84
2022/12/14 15:44:19;;;;;;;19.08;12.35;;;;;;;;;;4988559;28;20062;-84
2022/12/14 15:46:52;;;;;;;21.17;12.30;;;;;;;;;;4989502;28;20057;-83
2022/12/14 15:49:20;;;;;;;21.33;12.50;;;;;;;;;;4998892;28;20030;-83
2022/12/14 15:51:46;;;;;;;19.88;12.73;;;;;;;;;;4998515;28;20300;-84
2022/12/14 15:54:14;;;;;;;22.13;13.32;;;;;;;;;;4992239;28;20266;-83
2022/12/14 15:56:42;;;;;;;21.48;12.05;;;;;;;;;;4991352;28;20030;-84
2022/12/14 15:59:26;;;;;;;18.95;12.38;;;;;;;;;;4991219;28;20590;-83
2022/12/14 16:02:13;;;;;;;20.45;12.13;;;;;;;;;;4990459;28;20038;-84
2022/12/14 16:04:42;;;;;;;24.35;14.80;;;;;;;;;;4991681;28;20491;-84
2022/12/14 16:07:22;;;;;;;24.10;13.40;;;;;;;;;;4991738;28;20095;-83